createdAt,value
2023-04-15T00:01:22.906Z,100.00
2023-04-15T00:03:54.905Z,100.00
2023-04-15T00:06:26.555Z,100.00
2023-04-15T00:08:56.018Z,100.00
2023-04-15T00:11:25.811Z,100.00
2023-04-15T00:13:55.349Z,100.00
2023-04-15T00:16:24.688Z,100.00
2023-04-15T00:18:54.074Z,100.00
2023-04-15T00:21:24.867Z,100.00
2023-04-15T00:23:54.445Z,100.00
2023-04-15T00:26:23.810Z,100.00
2023-04-15T00:28:53.236Z,100.00
2023-04-15T00:31:23.406Z,100.00
2023-04-15T00:33:53.453Z,100.00
2023-04-15T00:36:24.689Z,100.00
2023-04-15T00:38:54.253Z,100.00
2023-04-15T00:41:24.537Z,100.00
2023-04-15T00:43:54.542Z,100.00
2023-04-15T00:46:25.306Z,100.00
2023-04-15T00:50:04.146Z,100.00
2023-04-15T00:52:33.411Z,100.00
2023-04-15T00:55:04.918Z,100.00
2023-04-15T00:57:34.967Z,100.00
2023-04-15T01:00:05.996Z,100.00
2023-04-15T01:02:35.741Z,100.00
2023-04-15T01:05:07.926Z,100.00
2023-04-15T01:07:37.284Z,100.00
2023-04-15T01:10:08.211Z,100.00
2023-04-15T01:12:38.056Z,100.00
2023-04-15T01:15:09.606Z,100.00
2023-04-15T01:17:39.651Z,100.00
2023-04-15T01:20:12.462Z,100.00
2023-04-15T01:22:42.157Z,100.00
2023-04-15T01:25:14.719Z,100.00
2023-04-15T01:27:46.910Z,100.00
2023-04-15T01:30:16.470Z,100.00
2023-04-15T01:32:46.300Z,100.00
2023-04-15T01:35:15.747Z,100.00
2023-04-15T01:37:45.271Z,100.00
2023-04-15T01:40:15.614Z,100.00
2023-04-15T01:42:47.100Z,100.00
2023-04-15T01:45:17.031Z,100.00
2023-04-15T01:47:46.351Z,100.00
2023-04-15T01:50:15.854Z,100.00
2023-04-15T01:52:45.208Z,100.00
2023-04-15T01:55:14.770Z,100.00
2023-04-15T01:57:45.562Z,100.00
2023-04-15T02:00:15.834Z,100.00
2023-04-15T02:02:45.390Z,100.00
2023-04-15T02:05:14.834Z,100.00
2023-04-15T02:07:44.826Z,100.00
2023-04-15T02:10:14.534Z,100.00
2023-04-15T02:12:45.433Z,100.00
2023-04-15T02:15:14.836Z,100.00
2023-04-15T02:17:46.195Z,100.00
2023-04-15T02:20:16.171Z,100.00
2023-04-15T02:22:45.756Z,100.00
2023-04-15T02:25:15.131Z,100.00
2023-04-15T02:27:45.965Z,100.00
2023-04-15T02:30:15.503Z,100.00
2023-04-15T02:32:45.578Z,100.00
2023-04-15T02:35:15.212Z,100.00
2023-04-15T02:37:46.028Z,100.00
2023-04-15T02:40:15.843Z,100.00
2023-04-15T02:42:46.996Z,100.00
2023-04-15T02:45:18.354Z,100.00
2023-04-15T02:47:47.612Z,100.00
2023-04-15T02:50:17.540Z,100.00
2023-04-15T02:52:47.013Z,100.00
2023-04-15T02:55:18.240Z,100.00
2023-04-15T02:57:48.936Z,100.00
2023-04-15T03:00:18.625Z,100.00
2023-04-15T03:02:52.554Z,100.00
2023-04-15T03:05:22.138Z,100.00
2023-04-15T03:07:52.734Z,100.00
2023-04-15T03:10:22.473Z,100.00
2023-04-15T03:12:53.305Z,100.00
2023-04-15T03:15:22.657Z,100.00
2023-04-15T03:17:52.078Z,100.00
2023-04-15T03:20:21.728Z,100.00
2023-04-15T03:22:51.081Z,100.00
2023-04-15T03:25:20.614Z,100.00
2023-04-15T03:27:51.449Z,100.00
2023-04-15T03:30:20.969Z,100.00
2023-04-15T03:32:50.313Z,100.00
2023-04-15T03:35:19.817Z,100.00
2023-04-15T03:37:49.478Z,100.00
2023-04-15T03:40:18.843Z,100.00
2023-04-15T03:42:48.049Z,100.00
2023-04-15T03:45:18.872Z,100.00
2023-04-15T03:51:04.491Z,100.00
2023-04-15T03:53:33.694Z,100.00
2023-04-15T03:56:03.043Z,100.00
2023-04-15T03:58:32.386Z,100.00
2023-04-15T04:01:01.698Z,100.00
2023-04-15T04:03:31.242Z,100.00
2023-04-15T04:06:00.730Z,100.00
2023-04-15T04:08:31.520Z,100.00
2023-04-15T04:11:01.117Z,100.00
2023-04-15T04:13:30.655Z,100.00
2023-04-15T04:16:00.347Z,100.00
2023-04-15T04:18:29.815Z,100.00
2023-04-15T04:20:59.254Z,100.00
2023-04-15T04:23:30.160Z,100.00
2023-04-15T04:25:59.377Z,100.00
2023-04-15T04:28:28.684Z,100.00
2023-04-15T04:30:59.076Z,100.00
2023-04-15T04:33:28.609Z,100.00
2023-04-15T04:35:57.953Z,100.00
2023-04-15T04:38:27.569Z,100.00
2023-04-15T04:40:58.498Z,100.00
2023-04-15T04:43:28.419Z,100.00
2023-04-15T04:45:57.667Z,100.00
2023-04-15T04:48:27.416Z,100.00
2023-04-15T04:50:57.070Z,100.00
2023-04-15T04:53:28.318Z,100.00
2023-04-15T04:55:59.451Z,100.00
2023-04-15T04:58:28.776Z,100.00
2023-04-15T05:00:58.832Z,100.00
2023-04-15T05:03:28.508Z,100.00
2023-04-15T05:05:57.869Z,100.00
2023-04-15T05:08:27.370Z,100.00
2023-04-15T05:10:58.108Z,100.00
2023-04-15T05:13:27.677Z,100.00
2023-04-15T05:15:57.172Z,100.00
2023-04-15T05:18:26.802Z,100.00
2023-04-15T05:20:56.266Z,100.00
2023-04-15T05:23:25.731Z,100.00
2023-04-15T05:25:55.051Z,100.00
2023-04-15T05:28:25.894Z,100.00
2023-04-15T05:30:55.480Z,100.00
2023-04-15T05:33:25.143Z,100.00
2023-04-15T05:35:54.415Z,100.00
2023-04-15T05:38:23.729Z,100.00
2023-04-15T05:40:53.288Z,100.00
2023-04-15T05:43:22.673Z,100.00
2023-04-15T05:45:53.451Z,100.00
2023-04-15T05:48:22.849Z,100.00
2023-04-15T05:50:52.219Z,100.00
2023-04-15T05:53:22.153Z,100.00
2023-04-15T05:55:51.853Z,100.00
2023-04-15T05:58:21.349Z,99.59
2023-04-15T06:00:52.166Z,97.80
2023-04-15T06:03:22.085Z,97.16
2023-04-15T06:05:51.526Z,95.29
2023-04-15T06:08:20.827Z,93.93
2023-04-15T06:10:50.714Z,93.27
2023-04-15T06:13:20.131Z,93.25
2023-04-15T06:15:49.706Z,93.90
2023-04-15T06:18:20.496Z,94.44
2023-04-15T06:20:49.941Z,95.56
2023-04-15T06:23:19.300Z,96.19
2023-04-15T06:25:48.727Z,97.32
2023-04-15T06:28:18.061Z,98.71
2023-04-15T06:30:47.300Z,99.28
2023-04-15T06:33:19.554Z,100.00
2023-04-15T06:35:49.921Z,100.00
2023-04-15T06:38:19.274Z,100.00
2023-04-15T06:40:48.810Z,100.00
2023-04-15T06:43:18.648Z,100.00
2023-04-15T06:45:48.037Z,100.00
2023-04-15T06:51:04.342Z,100.00
2023-04-15T06:53:33.597Z,100.00
2023-04-15T06:56:02.987Z,100.00
2023-04-15T06:58:32.298Z,100.00
2023-04-15T07:01:01.856Z,100.00
2023-04-15T07:03:32.768Z,100.00
2023-04-15T07:06:06.667Z,100.00
2023-04-15T07:08:36.169Z,100.00
2023-04-15T07:11:05.645Z,100.00
2023-04-15T07:13:35.407Z,100.00
2023-04-15T07:16:04.771Z,100.00
2023-04-15T07:18:33.972Z,100.00
2023-04-15T07:21:04.826Z,100.00
2023-04-15T07:23:34.111Z,100.00
2023-04-15T07:26:03.534Z,100.00
2023-04-15T07:28:33.135Z,100.00
2023-04-15T07:31:02.524Z,100.00
2023-04-15T07:33:31.752Z,100.00
2023-04-15T07:36:01.232Z,100.00
2023-04-15T07:38:32.007Z,100.00
2023-04-15T07:41:01.978Z,100.00
2023-04-15T07:43:31.504Z,99.67
2023-04-15T07:46:00.901Z,96.80
2023-04-15T07:48:30.283Z,96.16
2023-04-15T07:50:59.497Z,95.64
2023-04-15T07:53:30.651Z,96.41
2023-04-15T07:55:59.958Z,97.21
2023-04-15T07:58:29.357Z,97.06
2023-04-15T08:00:59.250Z,96.13
2023-04-15T08:03:29.083Z,94.61
2023-04-15T08:05:58.573Z,92.66
2023-04-15T08:08:27.900Z,91.47
2023-04-15T08:10:59.090Z,90.32
2023-04-15T08:13:28.956Z,88.71
2023-04-15T08:16:20.710Z,84.61
2023-04-15T08:18:51.125Z,85.83
2023-04-15T08:21:22.105Z,86.66
2023-04-15T08:23:53.709Z,86.55
2023-04-15T08:26:24.957Z,87.56
2023-04-15T08:28:54.335Z,88.21
2023-04-15T08:31:23.805Z,87.23
2023-04-15T08:33:55.101Z,84.07
2023-04-15T08:36:24.366Z,80.85
2023-04-15T08:38:53.864Z,79.33
2023-04-15T08:41:27.444Z,75.75
2023-04-15T08:44:00.369Z,75.54
2023-04-15T08:46:30.411Z,71.29
2023-04-15T08:49:01.578Z,77.03
2023-04-15T08:51:32.072Z,75.89
2023-04-15T08:54:02.774Z,77.32
2023-04-15T08:56:34.124Z,76.92
2023-04-15T08:59:04.380Z,73.17
2023-04-15T09:01:35.168Z,71.98
2023-04-15T09:04:08.323Z,72.65
2023-04-15T09:06:37.888Z,72.34
2023-04-15T09:09:07.081Z,73.92
2023-04-15T09:11:38.041Z,73.52
2023-04-15T09:14:07.341Z,71.38
2023-04-15T09:17:02.162Z,68.37
2023-04-15T09:19:33.779Z,64.76
2023-04-15T09:22:03.196Z,64.28
2023-04-15T09:24:40.562Z,65.64
2023-04-15T09:27:12.430Z,67.07
2023-04-15T09:29:44.285Z,65.38
2023-04-15T09:32:17.813Z,67.43
2023-04-15T09:34:48.332Z,67.38
2023-04-15T09:37:31.766Z,66.35
2023-04-15T09:40:01.941Z,62.46
2023-04-15T09:42:32.820Z,61.36
2023-04-15T09:45:11.868Z,60.15
2023-04-15T09:51:04.747Z,61.93
2023-04-15T09:53:38.570Z,61.05
2023-04-15T09:56:10.725Z,64.36
2023-04-15T09:58:42.675Z,64.78
2023-04-15T10:01:12.113Z,66.58
2023-04-15T10:03:43.564Z,64.59
2023-04-15T10:06:15.241Z,64.54
2023-04-15T10:08:44.652Z,59.75
2023-04-15T10:11:14.998Z,57.98
2023-04-15T10:13:44.483Z,60.68
2023-04-15T10:16:16.994Z,61.67
2023-04-15T10:18:48.452Z,60.56
2023-04-15T10:21:20.257Z,57.92
2023-04-15T10:23:49.954Z,53.65
2023-04-15T10:26:19.852Z,58.32
2023-04-15T10:28:49.661Z,52.66
2023-04-15T10:31:20.573Z,56.53
2023-04-15T10:33:50.766Z,57.08
2023-04-15T10:36:22.873Z,52.66
2023-04-15T10:38:52.396Z,50.22
2023-04-15T10:41:23.971Z,52.56
2023-04-15T10:43:56.192Z,51.07
2023-04-15T10:46:37.483Z,48.64
2023-04-15T10:49:12.550Z,50.21
2023-04-15T10:51:45.543Z,51.59
2023-04-15T10:54:18.259Z,51.03
2023-04-15T10:56:48.351Z,49.98
2023-04-15T10:59:20.365Z,48.33
2023-04-15T11:01:56.857Z,48.78
2023-04-15T11:04:55.295Z,49.98
2023-04-15T11:07:53.881Z,48.33
2023-04-15T11:10:57.850Z,48.22
2023-04-15T11:13:29.659Z,49.87
2023-04-15T11:16:04.058Z,49.63
2023-04-15T11:18:35.301Z,48.25
2023-04-15T11:21:07.489Z,47.49
2023-04-15T11:23:44.405Z,47.37
2023-04-15T11:26:14.067Z,47.43
2023-04-15T11:28:46.329Z,46.14
2023-04-15T11:31:16.992Z,45.07
2023-04-15T11:33:55.524Z,45.81
2023-04-15T11:36:28.612Z,47.90
2023-04-15T11:39:01.328Z,47.46
2023-04-15T11:41:30.790Z,47.48
2023-04-15T11:44:00.169Z,47.49
2023-04-15T11:46:32.895Z,47.47
2023-04-15T11:49:02.648Z,46.20
2023-04-15T11:51:35.996Z,46.13
2023-04-15T11:54:07.179Z,45.51
2023-04-15T11:56:36.724Z,45.68
2023-04-15T11:59:05.960Z,45.60
2023-04-15T12:01:36.621Z,46.58
2023-04-15T12:04:14.372Z,42.44
2023-04-15T12:06:43.788Z,40.72
2023-04-15T12:09:15.817Z,42.54
2023-04-15T12:11:48.644Z,44.16
2023-04-15T12:14:26.868Z,42.38
2023-04-15T12:17:00.446Z,43.87
2023-04-15T12:19:32.797Z,41.20
2023-04-15T12:22:04.795Z,41.17
2023-04-15T12:24:37.499Z,42.12
2023-04-15T12:27:08.165Z,42.13
2023-04-15T12:29:39.949Z,44.20
2023-04-15T12:32:11.365Z,44.04
2023-04-15T12:34:42.879Z,42.01
2023-04-15T12:37:14.610Z,43.00
2023-04-15T12:39:49.395Z,44.09
2023-04-15T12:42:19.606Z,40.61
2023-04-15T12:44:49.147Z,44.18
2023-04-15T12:47:18.394Z,41.21
2023-04-15T12:51:06.934Z,42.75
2023-04-15T12:53:36.396Z,42.00
2023-04-15T12:56:09.255Z,41.12
2023-04-15T12:58:38.519Z,42.49
2023-04-15T13:01:08.039Z,43.24
2023-04-15T13:03:37.462Z,45.08
2023-04-15T13:06:08.458Z,45.17
2023-04-15T13:08:42.589Z,48.62
2023-04-15T13:11:14.831Z,48.27
2023-04-15T13:13:44.252Z,48.01
2023-04-15T13:16:14.304Z,48.65
2023-04-15T13:18:43.775Z,47.39
2023-04-15T13:21:14.794Z,49.16
2023-04-15T13:23:44.292Z,48.96
2023-04-15T13:26:13.915Z,48.96
2023-04-15T13:28:43.270Z,50.47
2023-04-15T13:31:12.745Z,51.92
2023-04-15T13:33:42.186Z,51.11
2023-04-15T13:36:11.850Z,51.71
2023-04-15T13:38:42.657Z,52.59
2023-04-15T13:41:12.126Z,52.84
2023-04-15T13:43:41.786Z,52.77
2023-04-15T13:46:11.336Z,52.74
2023-04-15T13:48:40.839Z,52.20
2023-04-15T13:51:10.159Z,52.49
2023-04-15T13:53:39.749Z,51.14
2023-04-15T13:56:12.429Z,51.85
2023-04-15T13:58:42.820Z,50.96
2023-04-15T14:01:12.175Z,51.37
2023-04-15T14:03:41.841Z,52.12
2023-04-15T14:06:11.460Z,52.39
2023-04-15T14:08:41.310Z,52.36
2023-04-15T14:11:12.382Z,53.47
2023-04-15T14:13:41.746Z,54.26
2023-04-15T14:16:11.394Z,54.62
2023-04-15T14:18:41.311Z,55.05
2023-04-15T14:21:10.813Z,55.71
2023-04-15T14:23:40.068Z,55.47
2023-04-15T14:26:10.846Z,54.80
2023-04-15T14:28:40.182Z,56.13
2023-04-15T14:31:09.630Z,56.07
2023-04-15T14:33:38.996Z,56.71
2023-04-15T14:36:09.426Z,56.95
2023-04-15T14:38:40.253Z,57.33
2023-04-15T14:41:12.344Z,57.92
2023-04-15T14:43:41.798Z,58.02
2023-04-15T14:46:11.965Z,57.66
2023-04-15T14:48:41.470Z,58.23
2023-04-15T14:51:10.864Z,58.95
2023-04-15T14:53:40.234Z,58.36
2023-04-15T14:56:11.560Z,58.71
2023-04-15T14:58:40.982Z,58.96
2023-04-15T15:01:11.213Z,59.68
2023-04-15T15:03:41.669Z,59.70
2023-04-15T15:06:11.239Z,60.28
2023-04-15T15:08:40.601Z,60.28
2023-04-15T15:11:11.333Z,60.71
2023-04-15T15:13:40.810Z,60.91
2023-04-15T15:16:12.447Z,61.65
2023-04-15T15:18:43.250Z,61.70
2023-04-15T15:21:13.806Z,62.05
2023-04-15T15:23:43.214Z,62.26
2023-04-15T15:26:14.375Z,62.51
2023-04-15T15:28:44.977Z,62.71
2023-04-15T15:31:14.303Z,63.19
2023-04-15T15:33:43.613Z,63.55
2023-04-15T15:36:13.090Z,64.19
2023-04-15T15:38:43.265Z,64.52
2023-04-15T15:41:15.792Z,65.13
2023-04-15T15:43:45.232Z,65.15
2023-04-15T15:46:14.550Z,66.19
2023-04-15T15:51:06.643Z,66.82
2023-04-15T15:53:36.489Z,66.73
2023-04-15T15:56:06.317Z,66.90
2023-04-15T15:58:36.492Z,66.94
2023-04-15T16:01:06.107Z,67.67
2023-04-15T16:03:35.670Z,68.26
2023-04-15T16:06:06.991Z,67.89
2023-04-15T16:08:36.373Z,68.36
2023-04-15T16:11:05.961Z,67.89
2023-04-15T16:13:35.290Z,67.98
2023-04-15T16:16:04.721Z,68.07
2023-04-15T16:18:35.288Z,68.49
2023-04-15T16:21:06.950Z,68.76
2023-04-15T16:23:37.251Z,68.69
2023-04-15T16:26:06.994Z,69.18
2023-04-15T16:28:36.408Z,69.53
2023-04-15T16:31:05.933Z,70.02
2023-04-15T16:33:35.274Z,70.01
2023-04-15T16:36:06.784Z,69.97
2023-04-15T16:38:36.085Z,70.17
2023-04-15T16:41:05.681Z,70.99
2023-04-15T16:43:34.965Z,71.40
2023-04-15T16:46:04.513Z,72.18
2023-04-15T16:48:33.883Z,72.29
2023-04-15T16:51:04.840Z,72.37
2023-04-15T16:53:34.172Z,72.56
2023-04-15T16:56:03.542Z,72.70
2023-04-15T16:58:32.928Z,72.66
2023-04-15T17:01:02.659Z,72.63
2023-04-15T17:03:33.293Z,72.71
2023-04-15T17:06:04.407Z,72.63
2023-04-15T17:08:33.756Z,72.56
2023-04-15T17:11:03.027Z,72.87
2023-04-15T17:13:32.525Z,73.09
2023-04-15T17:16:02.481Z,73.45
2023-04-15T17:18:32.107Z,73.83
2023-04-15T17:21:01.489Z,73.72
2023-04-15T17:23:32.250Z,73.75
2023-04-15T17:26:01.936Z,73.46
2023-04-15T17:28:31.347Z,73.31
2023-04-15T17:31:00.799Z,73.95
2023-04-15T17:33:55.409Z,74.25
2023-04-15T17:36:19.470Z,74.59
2023-04-15T17:38:50.266Z,74.00
2023-04-15T17:41:19.693Z,74.27
2023-04-15T17:43:48.993Z,74.50
2023-04-15T17:46:19.500Z,74.57
2023-04-15T17:48:49.645Z,74.56
2023-04-15T17:51:19.126Z,74.25
2023-04-15T17:53:49.974Z,75.34
2023-04-15T17:56:19.268Z,75.13
2023-04-15T17:58:48.694Z,75.14
2023-04-15T18:01:18.081Z,74.90
2023-04-15T18:03:47.551Z,74.71
2023-04-15T18:06:17.983Z,75.16
2023-04-15T18:08:48.938Z,75.25
2023-04-15T18:11:18.287Z,75.06
2023-04-15T18:13:47.544Z,74.77
2023-04-15T18:16:17.007Z,74.09
2023-04-15T18:18:46.329Z,73.13
2023-04-15T18:21:15.707Z,72.07
2023-04-15T18:23:44.931Z,71.12
2023-04-15T18:26:15.857Z,70.25
2023-04-15T18:28:45.254Z,68.66
2023-04-15T18:31:14.707Z,68.20
2023-04-15T18:33:44.128Z,67.61
2023-04-15T18:36:13.593Z,67.10
2023-04-15T18:38:42.957Z,66.68
2023-04-15T18:41:12.305Z,65.44
2023-04-15T18:43:43.229Z,65.40
2023-04-15T18:46:13.930Z,64.89
2023-04-15T18:51:03.552Z,62.65
2023-04-15T18:53:32.838Z,61.97
2023-04-15T18:56:03.532Z,61.40
2023-04-15T18:59:08.960Z,61.44
2023-04-15T19:01:22.313Z,61.35
2023-04-15T19:03:51.717Z,61.80
2023-04-15T19:06:23.252Z,61.23
2023-04-15T19:08:53.129Z,61.74
2023-04-15T19:11:22.535Z,62.03
2023-04-15T19:13:52.482Z,62.30
2023-04-15T19:16:21.722Z,62.03
2023-04-15T19:18:51.072Z,62.10
2023-04-15T19:21:21.908Z,62.25
2023-04-15T19:23:51.557Z,62.39
2023-04-15T19:26:20.953Z,62.40
2023-04-15T19:28:50.408Z,62.56
2023-04-15T19:31:19.728Z,62.99
2023-04-15T19:33:49.113Z,63.52
2023-04-15T19:36:19.465Z,63.83
2023-04-15T19:38:50.226Z,64.65
2023-04-15T19:41:19.690Z,65.59
2023-04-15T19:43:49.000Z,67.16
2023-04-15T19:46:18.873Z,67.75
2023-04-15T19:48:48.280Z,68.52
2023-04-15T19:51:17.720Z,69.87
2023-04-15T19:53:49.793Z,70.16
2023-04-15T19:56:19.122Z,71.32
2023-04-15T19:58:52.904Z,72.61
2023-04-15T20:01:22.517Z,73.15
2023-04-15T20:03:52.069Z,71.50
2023-04-15T20:06:21.774Z,73.90
2023-04-15T20:08:53.193Z,73.47
2023-04-15T20:11:25.510Z,73.69
2023-04-15T20:14:14.734Z,73.23
2023-04-15T20:16:44.045Z,73.14
2023-04-15T20:19:14.067Z,73.17
2023-04-15T20:21:43.477Z,74.64
2023-04-15T20:24:14.230Z,75.27
2023-04-15T20:26:43.549Z,77.41
2023-04-15T20:29:13.757Z,77.42
2023-04-15T20:31:43.274Z,76.74
2023-04-15T20:34:13.331Z,75.88
2023-04-15T20:36:42.762Z,74.70
2023-04-15T20:39:13.550Z,73.75
2023-04-15T20:41:43.028Z,73.02
2023-04-15T20:44:12.365Z,72.15
2023-04-15T20:46:41.795Z,71.84
2023-04-15T20:49:11.255Z,71.96
2023-04-15T20:51:40.635Z,71.60
2023-04-15T20:54:09.958Z,70.70
2023-04-15T20:56:40.793Z,70.63
2023-04-15T20:59:10.137Z,70.00
2023-04-15T21:01:40.470Z,69.51
2023-04-15T21:04:09.801Z,69.70
2023-04-15T21:06:39.117Z,68.87
2023-04-15T21:09:08.671Z,68.71
2023-04-15T21:11:57.505Z,68.39
2023-04-15T21:14:28.792Z,67.85
2023-04-15T21:16:59.672Z,67.31
2023-04-15T21:19:29.192Z,66.79
2023-04-15T21:21:58.530Z,66.40
2023-04-15T21:24:28.058Z,66.07
2023-04-15T21:26:58.694Z,65.87
2023-04-15T21:29:28.573Z,65.83
2023-04-15T21:31:57.911Z,65.76
2023-04-15T21:34:27.321Z,65.57
2023-04-15T21:36:56.677Z,65.24
2023-04-15T21:39:26.469Z,64.63
2023-04-15T21:41:56.085Z,64.28
2023-04-15T21:44:26.923Z,64.19
2023-04-15T21:46:56.679Z,63.62
2023-04-15T21:51:04.270Z,63.34
2023-04-15T21:53:33.588Z,63.02
2023-04-15T21:56:03.068Z,63.49
2023-04-15T21:58:32.429Z,63.48
2023-04-15T22:01:01.906Z,63.58
2023-04-15T22:03:34.080Z,64.04
2023-04-15T22:06:06.246Z,64.38
2023-04-15T22:08:44.496Z,64.20
2023-04-15T22:11:26.838Z,64.48
2023-04-15T22:13:58.048Z,63.94
2023-04-15T22:16:28.053Z,64.25
2023-04-15T22:18:57.866Z,64.19
2023-04-15T22:21:28.678Z,64.71
2023-04-15T22:24:38.939Z,64.47
2023-04-15T22:26:47.427Z,64.30
2023-04-15T22:29:16.773Z,63.92
2023-04-15T22:31:46.140Z,63.99
2023-04-15T22:34:20.786Z,64.16
2023-04-15T22:36:52.443Z,63.78
2023-04-15T22:39:22.186Z,64.05
2023-04-15T22:41:52.227Z,63.92
2023-04-15T22:44:21.507Z,63.94
2023-04-15T22:46:53.267Z,63.75
2023-04-15T22:49:22.710Z,63.89
2023-04-15T22:51:53.465Z,64.13
2023-04-15T22:54:22.720Z,64.07
2023-04-15T22:56:52.065Z,64.11
2023-04-15T22:59:22.349Z,63.91
2023-04-15T23:01:51.900Z,63.91
2023-04-15T23:04:23.296Z,64.05
2023-04-15T23:06:58.621Z,63.94
2023-04-15T23:09:27.969Z,63.97
2023-04-15T23:11:57.691Z,64.32
2023-04-15T23:14:28.313Z,64.04
2023-04-15T23:16:59.985Z,64.51
2023-04-15T23:19:29.264Z,64.55
2023-04-15T23:22:00.029Z,64.37
2023-04-15T23:24:29.505Z,64.62
2023-04-15T23:26:58.897Z,64.68
2023-04-15T23:29:28.337Z,64.72
2023-04-15T23:31:58.118Z,65.26
2023-04-15T23:34:28.795Z,65.48
2023-04-15T23:36:59.477Z,66.44
2023-04-15T23:39:30.368Z,66.53
2023-04-15T23:41:59.838Z,67.10
2023-04-15T23:44:29.154Z,67.52
2023-04-15T23:46:58.577Z,67.34
2023-04-15T23:49:28.052Z,66.99
2023-04-15T23:51:58.835Z,67.09
2023-04-15T23:54:28.305Z,66.94
2023-04-15T23:56:57.531Z,66.92
2023-04-15T23:59:26.998Z,66.87
